createdAt,value
2022-10-24T00:01:25.129Z,17.31
2022-10-24T00:03:51.804Z,17.36
2022-10-24T00:06:18.948Z,17.48
2022-10-24T00:08:45.656Z,17.45
2022-10-24T00:11:23.096Z,17.47
2022-10-24T00:13:50.336Z,17.55
2022-10-24T00:16:16.843Z,17.56
2022-10-24T00:18:43.298Z,17.53
2022-10-24T00:21:10.137Z,17.57
2022-10-24T00:23:36.923Z,17.62
2022-10-24T00:26:04.387Z,17.63
2022-10-24T00:28:31.824Z,17.61
2022-10-24T00:30:58.231Z,17.63
2022-10-24T00:33:24.824Z,17.51
2022-10-24T00:35:51.338Z,17.56
2022-10-24T00:38:17.622Z,17.57
2022-10-24T00:40:43.918Z,17.63
2022-10-24T00:43:13.654Z,17.60
2022-10-24T00:45:43.471Z,17.59
2022-10-24T00:48:27.179Z,17.62
2022-10-24T00:51:13.718Z,17.57
2022-10-24T00:53:42.926Z,17.56
2022-10-24T00:56:11.581Z,17.55
2022-10-24T00:58:38.883Z,17.53
2022-10-24T01:01:06.163Z,17.54
2022-10-24T01:03:32.919Z,17.56
2022-10-24T01:06:11.813Z,17.57
2022-10-24T01:08:38.103Z,17.56
2022-10-24T01:11:43.054Z,17.57
2022-10-24T01:14:14.981Z,17.59
2022-10-24T01:16:41.233Z,17.61
2022-10-24T01:19:18.295Z,17.63
2022-10-24T01:21:48.952Z,17.70
2022-10-24T01:24:21.236Z,17.60
2022-10-24T01:26:47.528Z,17.67
2022-10-24T01:29:23.113Z,17.73
2022-10-24T01:31:55.860Z,17.75
2022-10-24T01:34:30.834Z,17.82
2022-10-24T01:37:02.610Z,17.82
2022-10-24T01:39:32.509Z,17.88
2022-10-24T01:42:01.041Z,18.05
2022-10-24T01:44:33.480Z,18.11
2022-10-24T01:47:08.130Z,18.13
2022-10-24T01:49:39.971Z,18.18
2022-10-24T01:52:08.255Z,18.32
2022-10-24T01:54:35.643Z,18.37
2022-10-24T01:57:02.098Z,18.29
2022-10-24T01:59:28.464Z,18.26
2022-10-24T02:02:16.122Z,18.25
2022-10-24T02:04:45.895Z,18.31
2022-10-24T02:07:13.920Z,18.34
2022-10-24T02:09:43.551Z,18.36
2022-10-24T02:12:11.487Z,18.31
2022-10-24T02:14:46.764Z,18.28
2022-10-24T02:17:13.158Z,18.28
2022-10-24T02:19:39.507Z,18.32
2022-10-24T02:22:34.993Z,18.32
2022-10-24T02:25:10.291Z,18.32
2022-10-24T02:27:46.516Z,18.26
2022-10-24T02:30:17.202Z,18.27
2022-10-24T02:32:45.623Z,18.26
2022-10-24T02:35:15.343Z,18.28
2022-10-24T02:37:45.382Z,18.23
2022-10-24T02:40:12.991Z,18.20
2022-10-24T02:42:42.098Z,18.23
2022-10-24T02:45:09.982Z,18.23
2022-10-24T02:47:38.039Z,18.13
2022-10-24T02:50:04.721Z,18.18
2022-10-24T02:52:31.160Z,18.18
2022-10-24T02:54:57.588Z,18.06
2022-10-24T02:57:26.547Z,18.01
2022-10-24T02:59:53.668Z,17.97
2022-10-24T03:02:20.195Z,17.96
2022-10-24T03:04:46.497Z,18.00
2022-10-24T03:07:12.839Z,17.98
2022-10-24T03:09:41.094Z,18.04
2022-10-24T03:12:07.561Z,18.06
2022-10-24T03:14:34.282Z,18.08
2022-10-24T03:17:03.478Z,18.01
2022-10-24T03:19:29.766Z,18.08
2022-10-24T03:21:56.050Z,18.05
2022-10-24T03:24:31.228Z,18.11
2022-10-24T03:27:08.809Z,18.06
2022-10-24T03:29:35.193Z,18.11
2022-10-24T03:32:01.555Z,18.12
2022-10-24T03:34:29.086Z,18.10
2022-10-24T03:36:55.368Z,18.01
2022-10-24T03:39:21.675Z,18.03
2022-10-24T03:41:48.054Z,18.16
2022-10-24T03:44:14.457Z,18.09
2022-10-24T03:46:40.763Z,18.08
2022-10-24T03:49:07.124Z,18.07
2022-10-24T03:51:33.631Z,18.10
2022-10-24T03:53:59.947Z,18.08
2022-10-24T03:56:26.392Z,18.10
2022-10-24T03:58:52.699Z,18.07
2022-10-24T04:01:19.505Z,18.02
2022-10-24T04:03:46.331Z,18.06
2022-10-24T04:06:13.199Z,18.12
2022-10-24T04:08:39.735Z,18.15
2022-10-24T04:11:06.742Z,18.14
2022-10-24T04:13:33.240Z,18.17
2022-10-24T04:15:59.612Z,18.22
2022-10-24T04:18:25.970Z,18.15
2022-10-24T04:20:52.344Z,18.14
2022-10-24T04:23:18.676Z,18.15
2022-10-24T04:25:45.814Z,18.16
2022-10-24T04:28:12.133Z,18.21
2022-10-24T04:30:38.535Z,18.19
2022-10-24T04:33:04.994Z,18.21
2022-10-24T04:35:31.371Z,18.15
2022-10-24T04:37:57.701Z,18.17
2022-10-24T04:40:23.985Z,18.21
2022-10-24T04:42:50.349Z,18.28
2022-10-24T04:45:16.732Z,18.24
2022-10-24T04:47:43.376Z,18.34
2022-10-24T04:50:12.895Z,18.30
2022-10-24T04:52:39.306Z,18.38
2022-10-24T04:55:05.766Z,18.32
2022-10-24T04:57:32.077Z,18.22
2022-10-24T04:59:58.365Z,18.30
2022-10-24T05:02:29.980Z,18.21
2022-10-24T05:04:56.339Z,18.19
2022-10-24T05:07:22.679Z,18.18
2022-10-24T05:09:49.018Z,18.13
2022-10-24T05:12:15.373Z,18.16
2022-10-24T05:14:41.789Z,18.15
2022-10-24T05:17:08.133Z,18.10
2022-10-24T05:19:34.505Z,18.21
2022-10-24T05:22:00.854Z,18.14
2022-10-24T05:24:27.175Z,18.17
2022-10-24T05:26:53.542Z,18.19
2022-10-24T05:29:19.830Z,18.26
2022-10-24T05:31:46.141Z,18.24
2022-10-24T05:34:12.473Z,18.35
2022-10-24T05:36:38.774Z,18.33
2022-10-24T05:39:05.490Z,18.31
2022-10-24T05:41:32.575Z,18.33
2022-10-24T05:43:58.927Z,18.33
2022-10-24T05:46:25.383Z,18.27
2022-10-24T05:48:51.668Z,18.19
2022-10-24T05:51:18.029Z,18.26
2022-10-24T05:53:44.488Z,18.20
2022-10-24T05:56:10.844Z,18.16
2022-10-24T05:58:37.194Z,18.14
2022-10-24T06:01:05.166Z,18.19
2022-10-24T06:03:31.510Z,18.12
2022-10-24T06:05:57.835Z,18.06
2022-10-24T06:08:24.198Z,18.04
2022-10-24T06:10:50.699Z,17.94
2022-10-24T06:13:18.100Z,18.09
2022-10-24T06:15:44.471Z,18.16
2022-10-24T06:18:11.010Z,18.10
2022-10-24T06:20:37.898Z,18.00
2022-10-24T06:23:04.287Z,18.08
2022-10-24T06:25:30.625Z,18.02
2022-10-24T06:27:56.960Z,18.03
2022-10-24T06:30:23.343Z,18.05
2022-10-24T06:32:50.160Z,18.05
2022-10-24T06:35:17.026Z,18.00
2022-10-24T06:37:52.280Z,18.06
2022-10-24T06:40:18.851Z,18.04
2022-10-24T06:42:45.167Z,18.06
2022-10-24T06:45:14.640Z,18.05
2022-10-24T06:47:40.959Z,18.05
2022-10-24T06:50:07.413Z,18.13
2022-10-24T06:52:39.712Z,18.11
2022-10-24T06:55:06.186Z,18.16
2022-10-24T06:57:32.489Z,18.33
2022-10-24T06:59:58.776Z,18.23
2022-10-24T07:02:25.278Z,18.23
2022-10-24T07:04:51.732Z,18.31
2022-10-24T07:07:19.299Z,18.18
2022-10-24T07:09:45.842Z,18.23
2022-10-24T07:12:15.084Z,18.28
2022-10-24T07:14:41.425Z,18.19
2022-10-24T07:17:07.980Z,18.18
2022-10-24T07:19:37.359Z,18.20
2022-10-24T07:22:04.020Z,18.30
2022-10-24T07:24:33.302Z,18.29
2022-10-24T07:26:59.596Z,18.25
2022-10-24T07:29:25.934Z,18.30
2022-10-24T07:31:52.441Z,18.29
2022-10-24T07:34:18.804Z,18.42
2022-10-24T07:36:51.531Z,18.37
2022-10-24T07:39:17.955Z,18.31
2022-10-24T07:41:44.321Z,18.33
2022-10-24T07:44:12.163Z,18.45
2022-10-24T07:46:40.219Z,18.43
2022-10-24T07:49:07.858Z,18.43
2022-10-24T07:51:36.877Z,18.44
2022-10-24T07:54:03.499Z,18.41
2022-10-24T07:56:29.883Z,18.49
2022-10-24T07:58:56.600Z,18.51
2022-10-24T08:01:24.393Z,18.51
2022-10-24T08:03:53.848Z,18.51
2022-10-24T08:06:31.042Z,18.46
2022-10-24T08:08:57.336Z,18.47
2022-10-24T08:11:25.438Z,18.62
2022-10-24T08:13:52.702Z,18.71
2022-10-24T08:16:20.840Z,18.75
2022-10-24T08:18:47.591Z,18.78
2022-10-24T08:21:14.746Z,18.69
2022-10-24T08:23:42.635Z,18.63
2022-10-24T08:26:09.748Z,18.74
2022-10-24T08:28:36.291Z,18.66
2022-10-24T08:31:04.475Z,18.66
2022-10-24T08:33:30.836Z,18.79
2022-10-24T08:35:58.844Z,18.72
2022-10-24T08:38:25.505Z,18.76
2022-10-24T08:40:51.872Z,18.72
2022-10-24T08:43:19.024Z,18.76
2022-10-24T08:45:58.540Z,18.85
2022-10-24T08:48:28.581Z,18.88
2022-10-24T08:51:00.149Z,18.93
2022-10-24T08:53:28.813Z,18.83
2022-10-24T08:55:55.982Z,18.97
2022-10-24T08:58:34.743Z,18.85
2022-10-24T09:01:02.953Z,18.78
2022-10-24T09:03:55.477Z,18.94
2022-10-24T09:06:24.843Z,18.92
2022-10-24T09:09:00.094Z,18.92
2022-10-24T09:11:46.716Z,19.05
2022-10-24T09:14:15.100Z,18.89
2022-10-24T09:16:43.118Z,18.97
2022-10-24T09:19:13.035Z,18.94
2022-10-24T09:21:40.526Z,18.84
2022-10-24T09:24:07.155Z,18.92
2022-10-24T09:26:37.579Z,18.94
2022-10-24T09:29:04.006Z,18.95
2022-10-24T09:31:30.567Z,18.99
2022-10-24T09:34:00.186Z,19.13
2022-10-24T09:36:29.485Z,19.15
2022-10-24T09:38:55.868Z,19.10
2022-10-24T09:41:24.529Z,19.18
2022-10-24T09:43:56.132Z,19.16
2022-10-24T09:46:24.600Z,19.14
2022-10-24T09:49:09.966Z,19.13
2022-10-24T09:51:38.590Z,18.94
2022-10-24T09:54:26.265Z,18.82
2022-10-24T09:56:58.981Z,18.93
2022-10-24T09:59:34.645Z,18.98
2022-10-24T10:02:10.488Z,19.10
2022-10-24T10:04:37.313Z,19.08
2022-10-24T10:07:14.380Z,19.19
2022-10-24T10:09:50.580Z,19.32
2022-10-24T10:12:29.385Z,19.34
2022-10-24T10:14:55.819Z,19.23
2022-10-24T10:17:23.833Z,19.38
2022-10-24T10:19:51.816Z,19.19
2022-10-24T10:22:22.787Z,19.29
2022-10-24T10:24:49.357Z,19.31
2022-10-24T10:27:34.381Z,19.28
2022-10-24T10:30:16.191Z,19.32
2022-10-24T10:33:09.002Z,19.45
2022-10-24T10:35:38.359Z,19.87
2022-10-24T10:38:26.648Z,19.72
2022-10-24T10:41:01.640Z,19.99
2022-10-24T10:43:27.935Z,20.10
2022-10-24T10:46:17.845Z,20.00
2022-10-24T10:48:47.283Z,20.17
2022-10-24T10:51:20.300Z,20.32
2022-10-24T10:53:53.619Z,20.04
2022-10-24T10:56:19.917Z,20.35
2022-10-24T10:59:04.649Z,20.41
2022-10-24T11:02:00.695Z,20.65
2022-10-24T11:04:42.413Z,20.70
2022-10-24T11:07:08.713Z,20.88
2022-10-24T11:09:38.203Z,21.10
2022-10-24T11:12:07.601Z,21.00
2022-10-24T11:14:36.659Z,21.20
2022-10-24T11:17:06.808Z,20.97
2022-10-24T11:19:51.948Z,20.74
2022-10-24T11:22:27.129Z,20.38
2022-10-24T11:24:57.373Z,20.14
2022-10-24T11:27:35.081Z,20.00
2022-10-24T11:30:01.362Z,20.09
2022-10-24T11:32:45.004Z,20.45
2022-10-24T11:35:17.315Z,20.10
2022-10-24T11:37:46.014Z,19.95
2022-10-24T11:40:15.031Z,20.10
2022-10-24T11:42:52.409Z,20.18
2022-10-24T11:45:20.269Z,19.89
2022-10-24T11:47:49.563Z,19.76
2022-10-24T11:50:15.869Z,19.76
2022-10-24T11:52:45.244Z,19.37
2022-10-24T11:55:16.644Z,19.56
2022-10-24T11:57:45.247Z,19.49
2022-10-24T12:00:21.031Z,19.32
2022-10-24T12:03:08.289Z,19.29
2022-10-24T12:05:37.590Z,19.37
2022-10-24T12:08:12.914Z,19.53
2022-10-24T12:10:58.107Z,19.33
2022-10-24T12:13:33.926Z,19.30
2022-10-24T12:16:17.542Z,19.26
2022-10-24T12:18:52.155Z,19.30
2022-10-24T12:21:25.522Z,19.23
2022-10-24T12:23:56.325Z,19.31
2022-10-24T12:26:33.302Z,19.02
2022-10-24T12:29:00.958Z,19.19
2022-10-24T12:31:32.994Z,19.06
2022-10-24T12:34:22.978Z,18.96
2022-10-24T12:37:07.087Z,19.00
2022-10-24T12:39:38.402Z,19.04
2022-10-24T12:42:05.260Z,19.15
2022-10-24T12:44:34.550Z,19.05
2022-10-24T12:47:01.760Z,18.94
2022-10-24T12:49:29.443Z,19.00
2022-10-24T12:51:56.615Z,19.14
2022-10-24T12:54:42.839Z,18.99
2022-10-24T12:57:12.224Z,19.14
2022-10-24T12:59:46.733Z,19.15
2022-10-24T13:02:13.217Z,19.13
2022-10-24T13:04:45.734Z,19.40
2022-10-24T13:07:12.666Z,19.28
2022-10-24T13:09:57.563Z,19.43
2022-10-24T13:12:33.028Z,20.27
2022-10-24T13:15:19.288Z,19.90
2022-10-24T13:18:03.279Z,20.29
2022-10-24T13:20:33.591Z,20.04
2022-10-24T13:23:02.138Z,19.74
2022-10-24T13:25:46.897Z,19.55
2022-10-24T13:28:22.488Z,20.29
2022-10-24T13:30:50.370Z,20.63
2022-10-24T13:33:32.374Z,20.22
2022-10-24T13:36:24.261Z,20.28
2022-10-24T13:38:55.229Z,19.81
2022-10-24T13:41:35.855Z,20.83
2022-10-24T13:44:05.232Z,20.60
2022-10-24T13:46:37.800Z,20.16
2022-10-24T13:49:04.651Z,19.80
2022-10-24T13:51:43.184Z,19.69
2022-10-24T13:54:24.863Z,19.45
2022-10-24T13:56:51.209Z,19.54
2022-10-24T13:59:31.143Z,19.46
2022-10-24T14:01:58.930Z,19.46
2022-10-24T14:04:25.954Z,19.42
2022-10-24T14:06:52.526Z,19.38
2022-10-24T14:09:18.991Z,19.38
2022-10-24T14:11:46.761Z,19.24
2022-10-24T14:14:19.234Z,19.42
2022-10-24T14:16:45.548Z,19.43
2022-10-24T14:19:25.610Z,19.38
2022-10-24T14:21:55.985Z,19.42
2022-10-24T14:24:22.636Z,19.41
2022-10-24T14:26:51.429Z,19.41
2022-10-24T14:29:28.552Z,19.45
2022-10-24T14:31:59.271Z,19.44
2022-10-24T14:34:25.802Z,18.96
2022-10-24T14:36:52.733Z,18.94
2022-10-24T14:39:23.791Z,18.64
2022-10-24T14:41:51.736Z,18.28
2022-10-24T14:44:19.216Z,18.23
2022-10-24T14:46:46.603Z,18.06
2022-10-24T14:49:20.895Z,17.84
2022-10-24T14:51:48.413Z,17.45
2022-10-24T14:54:19.462Z,17.43
2022-10-24T14:56:46.309Z,17.19
2022-10-24T14:59:21.598Z,16.84
2022-10-24T15:01:55.493Z,16.68
2022-10-24T15:04:38.752Z,16.38
2022-10-24T15:07:16.400Z,16.24
2022-10-24T15:09:58.019Z,16.25
2022-10-24T15:12:37.799Z,16.01
2022-10-24T15:15:22.739Z,15.97
2022-10-24T15:17:50.497Z,15.85
2022-10-24T15:20:18.724Z,15.89
2022-10-24T15:22:54.306Z,15.78
2022-10-24T15:25:23.559Z,15.75
2022-10-24T15:27:50.607Z,15.77
2022-10-24T15:30:18.298Z,15.75
2022-10-24T15:32:44.898Z,15.81
2022-10-24T15:35:12.247Z,15.76
2022-10-24T15:37:38.620Z,15.70
2022-10-24T15:40:06.537Z,15.71
2022-10-24T15:42:33.030Z,15.77
2022-10-24T15:44:59.394Z,15.77
2022-10-24T15:47:25.753Z,15.82
2022-10-24T15:49:52.393Z,15.87
2022-10-24T15:52:18.816Z,15.90
2022-10-24T15:54:45.274Z,15.88
2022-10-24T15:57:12.530Z,15.93
2022-10-24T15:59:38.891Z,15.88
2022-10-24T16:02:05.358Z,15.93
2022-10-24T16:04:33.280Z,15.96
2022-10-24T16:06:59.918Z,15.92
2022-10-24T16:09:30.992Z,15.96
2022-10-24T16:11:57.327Z,15.95
2022-10-24T16:14:26.081Z,15.96
2022-10-24T16:16:54.807Z,15.99
2022-10-24T16:19:21.139Z,16.01
2022-10-24T16:21:47.445Z,16.05
2022-10-24T16:24:13.928Z,16.02
2022-10-24T16:26:40.532Z,16.04
2022-10-24T16:29:06.957Z,16.00
2022-10-24T16:31:33.437Z,15.96
2022-10-24T16:33:59.735Z,16.04
2022-10-24T16:36:26.640Z,16.03
2022-10-24T16:38:52.953Z,16.07
2022-10-24T16:41:22.063Z,16.03
2022-10-24T16:43:49.894Z,16.03
2022-10-24T16:46:20.829Z,16.01
2022-10-24T16:48:47.384Z,16.04
2022-10-24T16:51:15.652Z,15.96
2022-10-24T16:53:42.018Z,16.03
2022-10-24T16:56:09.555Z,16.05
2022-10-24T16:58:36.189Z,16.02
2022-10-24T17:01:04.269Z,16.05
2022-10-24T17:03:30.758Z,15.99
2022-10-24T17:05:57.137Z,15.98
2022-10-24T17:08:23.846Z,16.02
2022-10-24T17:10:50.293Z,16.05
2022-10-24T17:13:16.635Z,16.08
2022-10-24T17:15:42.969Z,16.08
2022-10-24T17:18:09.431Z,16.07
2022-10-24T17:20:35.746Z,16.07
2022-10-24T17:23:04.348Z,16.09
2022-10-24T17:25:32.821Z,16.10
2022-10-24T17:27:59.176Z,16.10
2022-10-24T17:30:27.140Z,16.11
2022-10-24T17:32:53.564Z,16.11
2022-10-24T17:35:21.175Z,16.17
2022-10-24T17:37:47.451Z,16.11
2022-10-24T17:40:16.267Z,16.13
2022-10-24T17:42:43.247Z,16.08
2022-10-24T17:45:13.615Z,16.10
2022-10-24T17:47:40.121Z,16.10
2022-10-24T17:50:06.720Z,16.12
2022-10-24T17:52:33.060Z,16.09
2022-10-24T17:54:59.362Z,16.07
2022-10-24T17:57:25.666Z,16.03
2022-10-24T17:59:52.049Z,16.01
2022-10-24T18:02:18.409Z,15.97
2022-10-24T18:04:45.406Z,15.98
2022-10-24T18:07:11.830Z,15.98
2022-10-24T18:09:40.097Z,16.00
2022-10-24T18:12:06.501Z,15.93
2022-10-24T18:14:32.800Z,15.97
2022-10-24T18:17:00.094Z,15.87
2022-10-24T18:19:26.381Z,15.92
2022-10-24T18:21:52.695Z,15.84
2022-10-24T18:24:19.024Z,15.86
2022-10-24T18:26:47.697Z,15.81
2022-10-24T18:29:14.037Z,15.81
2022-10-24T18:31:40.357Z,15.76
2022-10-24T18:34:08.575Z,15.74
2022-10-24T18:36:36.330Z,15.74
2022-10-24T18:39:03.507Z,15.65
2022-10-24T18:41:38.644Z,15.52
2022-10-24T18:44:21.045Z,15.55
2022-10-24T18:46:50.460Z,15.53
2022-10-24T18:49:16.977Z,15.49
2022-10-24T18:51:55.426Z,15.45
2022-10-24T18:54:21.886Z,15.46
2022-10-24T18:56:48.726Z,15.45
2022-10-24T18:59:19.375Z,15.38
2022-10-24T19:01:51.568Z,15.31
2022-10-24T19:04:22.778Z,15.30
2022-10-24T19:06:50.078Z,15.32
2022-10-24T19:09:18.574Z,15.31
2022-10-24T19:11:44.983Z,15.30
2022-10-24T19:14:12.487Z,15.29
2022-10-24T19:16:38.859Z,15.29
2022-10-24T19:19:07.248Z,15.25
2022-10-24T19:21:33.551Z,15.25
2022-10-24T19:24:00.056Z,15.23
2022-10-24T19:26:26.353Z,15.21
2022-10-24T19:28:52.643Z,15.14
2022-10-24T19:31:19.111Z,15.08
2022-10-24T19:33:45.473Z,15.07
2022-10-24T19:36:14.511Z,15.05
2022-10-24T19:38:44.603Z,14.95
2022-10-24T19:41:11.707Z,14.86
2022-10-24T19:43:38.320Z,14.89
2022-10-24T19:46:19.488Z,14.82
2022-10-24T19:48:48.983Z,14.82
2022-10-24T19:51:16.290Z,14.82
2022-10-24T19:53:43.736Z,14.84
2022-10-24T19:56:13.991Z,14.79
2022-10-24T19:58:40.763Z,14.79
2022-10-24T20:01:08.105Z,14.84
2022-10-24T20:03:38.411Z,14.85
2022-10-24T20:06:04.850Z,14.82
2022-10-24T20:08:31.451Z,14.79
2022-10-24T20:10:57.912Z,14.75
2022-10-24T20:13:24.415Z,14.79
2022-10-24T20:16:01.786Z,14.82
2022-10-24T20:18:28.687Z,14.77
2022-10-24T20:20:55.117Z,14.75
2022-10-24T20:23:22.114Z,14.81
2022-10-24T20:25:49.067Z,14.86
2022-10-24T20:28:15.709Z,14.86
2022-10-24T20:30:43.383Z,14.90
2022-10-24T20:33:09.919Z,15.17
2022-10-24T20:35:36.370Z,15.25
2022-10-24T20:38:02.806Z,15.27
2022-10-24T20:40:29.330Z,15.30
2022-10-24T20:42:55.706Z,15.25
2022-10-24T20:45:23.106Z,15.17
2022-10-24T20:47:50.198Z,15.07
2022-10-24T20:50:16.639Z,14.99
2022-10-24T20:52:43.152Z,14.87
2022-10-24T20:55:19.698Z,14.78
2022-10-24T20:57:56.211Z,14.78
2022-10-24T21:00:22.654Z,14.74
2022-10-24T21:02:50.678Z,14.67
2022-10-24T21:05:17.138Z,14.70
2022-10-24T21:07:43.576Z,14.64
2022-10-24T21:10:10.045Z,14.56
2022-10-24T21:12:36.474Z,14.62
2022-10-24T21:15:03.001Z,14.60
2022-10-24T21:17:29.395Z,14.55
2022-10-24T21:19:55.740Z,14.52
2022-10-24T21:22:22.163Z,14.61
2022-10-24T21:24:48.664Z,14.62
2022-10-24T21:27:15.056Z,14.59
2022-10-24T21:29:41.371Z,14.60
2022-10-24T21:32:07.834Z,14.56
2022-10-24T21:34:35.033Z,14.60
2022-10-24T21:37:01.650Z,14.55
2022-10-24T21:39:27.968Z,14.55
2022-10-24T21:41:54.318Z,14.54
2022-10-24T21:44:23.233Z,14.47
2022-10-24T21:46:54.313Z,14.57
2022-10-24T21:49:20.776Z,14.55
2022-10-24T21:51:48.184Z,14.58
2022-10-24T21:54:19.904Z,14.62
2022-10-24T21:56:46.508Z,14.60
2022-10-24T21:59:14.348Z,14.62
2022-10-24T22:01:41.484Z,14.63
2022-10-24T22:04:08.115Z,14.64
2022-10-24T22:06:35.265Z,14.72
2022-10-24T22:09:02.052Z,14.67
2022-10-24T22:11:29.336Z,14.63
2022-10-24T22:13:56.046Z,14.75
2022-10-24T22:16:23.599Z,14.74
2022-10-24T22:18:50.007Z,14.76
2022-10-24T22:21:36.269Z,14.74
2022-10-24T22:24:04.323Z,14.79
2022-10-24T22:26:31.097Z,14.81
2022-10-24T22:28:57.431Z,14.74
2022-10-24T22:31:27.813Z,14.78
2022-10-24T22:33:54.836Z,14.77
2022-10-24T22:36:39.925Z,14.77
2022-10-24T22:39:11.730Z,14.81
2022-10-24T22:41:38.179Z,14.78
2022-10-24T22:44:04.709Z,14.82
2022-10-24T22:46:49.890Z,14.87
2022-10-24T22:49:16.206Z,14.86
2022-10-24T22:51:42.567Z,14.80
2022-10-24T22:54:16.595Z,14.75
2022-10-24T22:56:43.044Z,14.87
2022-10-24T22:59:09.495Z,14.86
2022-10-24T23:01:48.450Z,14.95
2022-10-24T23:04:28.415Z,14.97
2022-10-24T23:07:00.507Z,15.03
2022-10-24T23:09:26.827Z,15.10
2022-10-24T23:11:53.508Z,15.09
2022-10-24T23:14:19.988Z,15.16
2022-10-24T23:17:00.221Z,15.15
2022-10-24T23:19:27.700Z,15.18
2022-10-24T23:22:14.284Z,15.21
2022-10-24T23:24:40.682Z,15.20
2022-10-24T23:27:13.076Z,15.18
2022-10-24T23:29:41.820Z,15.23
2022-10-24T23:32:13.592Z,15.27
2022-10-24T23:34:39.983Z,15.28
2022-10-24T23:37:06.489Z,15.25
2022-10-24T23:39:34.117Z,15.25
2022-10-24T23:42:01.331Z,15.36
2022-10-24T23:44:28.058Z,15.40
2022-10-24T23:47:04.190Z,15.41
2022-10-24T23:49:35.458Z,15.48
2022-10-24T23:52:09.595Z,15.46
2022-10-24T23:54:36.095Z,15.48
2022-10-24T23:57:02.604Z,15.40
2022-10-24T23:59:28.986Z,15.46
